Williston, North Dakota
Current Conditions -  °F | °C
As of 3:52 PM on Monday 20 Oct 2014 (Local Time) from KISN Reporting Station
Clear Clear  
Wind Chill: 77°   Ceiling: Unl
Heat Index: 78°   Visibility: 10mi
Dew Point: 41°   Wind: 15mph
Humidity: 28%   Direction: 160°SSE
Pressure: 29.84"   Gusts: NA
Location:  48.15°N, 103.62°W
Report Text: KISN 202052Z AUTO 16013KT 10SM CLR 25/05 A2984 RMK AO2 SLP107 T02500050 56023
Loading
Personal Weather Stations






























Interactive Weather Map New forecast layout! Learn more

10-Day Weather Forecast

Advertisements
Track Severe Weather on mobile